sensor_id;sensor_type;location;lat;lon;timestamp;pressure;altitude;pressure_sealevel;temperature;humidity
19259;BME280;9763;48.780;9.212;2023-01-01T00:01:06;98656.03;;;17.23;81.10
19259;BME280;9763;48.780;9.212;2023-01-01T00:04:29;98647.97;;;17.24;80.79
19259;BME280;9763;48.780;9.212;2023-01-01T00:07:53;98660.34;;;17.24;80.49
19259;BME280;9763;48.780;9.212;2023-01-01T00:11:26;98651.47;;;17.25;80.84
19259;BME280;9763;48.780;9.212;2023-01-01T00:14:51;98660.34;;;17.24;80.79
19259;BME280;9763;48.780;9.212;2023-01-01T00:18:14;98665.75;;;17.22;81.11
19259;BME280;9763;48.780;9.212;2023-01-01T00:21:38;98677.97;;;17.23;80.95
19259;BME280;9763;48.780;9.212;2023-01-01T00:25:02;98669.78;;;17.26;80.99
19259;BME280;9763;48.780;9.212;2023-01-01T00:28:26;98673.09;;;17.28;81.05
19259;BME280;9763;48.780;9.212;2023-01-01T00:31:51;98653.81;;;17.28;80.94
19259;BME280;9763;48.780;9.212;2023-01-01T00:35:15;98661.31;;;17.33;81.29
19259;BME280;9763;48.780;9.212;2023-01-01T00:38:40;98663.97;;;17.33;80.90
19259;BME280;9763;48.780;9.212;2023-01-01T00:42:05;98660.63;;;17.31;81.33
19259;BME280;9763;48.780;9.212;2023-01-01T00:45:28;98659.91;;;17.28;80.71
19259;BME280;9763;48.780;9.212;2023-01-01T00:48:53;98659.25;;;17.26;80.81
19259;BME280;9763;48.780;9.212;2023-01-01T00:52:17;98655.91;;;17.24;81.26
19259;BME280;9763;48.780;9.212;2023-01-01T00:55:41;98664.06;;;17.21;81.08
19259;BME280;9763;48.780;9.212;2023-01-01T00:59:05;98666.97;;;17.18;81.07
19259;BME280;9763;48.780;9.212;2023-01-01T01:02:29;98666.69;;;17.12;80.71
19259;BME280;9763;48.780;9.212;2023-01-01T01:05:55;98659.03;;;17.09;80.40
19259;BME280;9763;48.780;9.212;2023-01-01T01:09:19;98659.56;;;17.03;80.33
19259;BME280;9763;48.780;9.212;2023-01-01T01:12:42;98653.44;;;16.92;80.03
19259;BME280;9763;48.780;9.212;2023-01-01T01:16:11;98654.94;;;16.85;79.97
19259;BME280;9763;48.780;9.212;2023-01-01T01:19:35;98650.34;;;16.78;79.92
19259;BME280;9763;48.780;9.212;2023-01-01T01:23:00;98665.25;;;16.68;79.77
19259;BME280;9763;48.780;9.212;2023-01-01T01:26:26;98667.81;;;16.58;79.42
19259;BME280;9763;48.780;9.212;2023-01-01T01:29:50;98673.03;;;16.48;79.09
19259;BME280;9763;48.780;9.212;2023-01-01T01:33:14;98676.72;;;16.36;78.65
19259;BME280;9763;48.780;9.212;2023-01-01T01:36:38;98666.13;;;16.27;78.55
19259;BME280;9763;48.780;9.212;2023-01-01T01:40:05;98672.53;;;16.13;78.84
19259;BME280;9763;48.780;9.212;2023-01-01T01:43:51;98682.41;;;16.00;78.39
19259;BME280;9763;48.780;9.212;2023-01-01T01:47:18;98667.63;;;15.88;78.78
19259;BME280;9763;48.780;9.212;2023-01-01T01:50:47;98669.47;;;15.76;79.20
19259;BME280;9763;48.780;9.212;2023-01-01T01:54:15;98682.69;;;15.65;79.03
19259;BME280;9763;48.780;9.212;2023-01-01T01:57:42;98686.91;;;15.56;79.06
19259;BME280;9763;48.780;9.212;2023-01-01T02:01:06;98678.03;;;15.46;79.12
19259;BME280;9763;48.780;9.212;2023-01-01T02:04:30;98677.22;;;15.34;78.92
19259;BME280;9763;48.780;9.212;2023-01-01T02:07:55;98674.50;;;15.25;78.90
19259;BME280;9763;48.780;9.212;2023-01-01T02:11:20;98679.53;;;15.17;78.74
19259;BME280;9763;48.780;9.212;2023-01-01T02:14:45;98677.38;;;15.10;78.90
19259;BME280;9763;48.780;9.212;2023-01-01T02:18:11;98673.22;;;15.08;79.37
19259;BME280;9763;48.780;9.212;2023-01-01T02:21:42;98669.28;;;15.02;79.03
19259;BME280;9763;48.780;9.212;2023-01-01T02:25:27;98679.19;;;14.99;79.76
19259;BME280;9763;48.780;9.212;2023-01-01T02:29:01;98685.28;;;14.99;80.19
19259;BME280;9763;48.780;9.212;2023-01-01T02:32:31;98685.03;;;15.02;80.27
19259;BME280;9763;48.780;9.212;2023-01-01T02:36:02;98678.81;;;15.03;80.01
19259;BME280;9763;48.780;9.212;2023-01-01T02:39:31;98679.66;;;15.04;80.38
19259;BME280;9763;48.780;9.212;2023-01-01T02:42:57;98665.19;;;15.09;80.35
19259;BME280;9763;48.780;9.212;2023-01-01T02:46:22;98674.88;;;15.20;80.87
19259;BME280;9763;48.780;9.212;2023-01-01T02:49:54;98683.47;;;15.33;81.02
19259;BME280;9763;48.780;9.212;2023-01-01T02:53:27;98688.81;;;15.43;81.32
19259;BME280;9763;48.780;9.212;2023-01-01T02:57:04;98694.41;;;15.49;81.02
19259;BME280;9763;48.780;9.212;2023-01-01T03:00:30;98694.28;;;15.51;81.41
19259;BME280;9763;48.780;9.212;2023-01-01T03:04:02;98699.44;;;15.53;81.31
19259;BME280;9763;48.780;9.212;2023-01-01T03:07:40;98706.28;;;15.55;81.26
19259;BME280;9763;48.780;9.212;2023-01-01T03:11:08;98692.28;;;15.55;81.84
19259;BME280;9763;48.780;9.212;2023-01-01T03:14:43;98689.13;;;15.61;82.03
19259;BME280;9763;48.780;9.212;2023-01-01T03:18:14;98689.63;;;15.66;82.28
19259;BME280;9763;48.780;9.212;2023-01-01T03:21:49;98688.38;;;15.70;81.68
19259;BME280;9763;48.780;9.212;2023-01-01T03:25:19;98697.72;;;15.74;81.79
19259;BME280;9763;48.780;9.212;2023-01-01T03:28:50;98712.31;;;15.78;81.74
19259;BME280;9763;48.780;9.212;2023-01-01T03:32:26;98711.22;;;15.80;81.79
19259;BME280;9763;48.780;9.212;2023-01-01T03:36:18;98722.44;;;15.82;81.70
19259;BME280;9763;48.780;9.212;2023-01-01T03:39:50;98725.53;;;15.88;81.37
19259;BME280;9763;48.780;9.212;2023-01-01T03:43:23;98733.69;;;15.84;81.30
19259;BME280;9763;48.780;9.212;2023-01-01T03:46:48;98739.06;;;15.83;81.18
19259;BME280;9763;48.780;9.212;2023-01-01T03:50:13;98745.44;;;15.80;80.64
19259;BME280;9763;48.780;9.212;2023-01-01T03:53:40;98753.69;;;15.76;80.56
19259;BME280;9763;48.780;9.212;2023-01-01T03:57:13;98752.25;;;15.72;79.85
19259;BME280;9763;48.780;9.212;2023-01-01T04:00:45;98744.75;;;15.67;79.98
19259;BME280;9763;48.780;9.212;2023-01-01T04:04:13;98739.97;;;15.61;80.09
19259;BME280;9763;48.780;9.212;2023-01-01T04:07:38;98738.56;;;15.57;80.02
19259;BME280;9763;48.780;9.212;2023-01-01T04:11:07;98725.03;;;15.50;79.84
19259;BME280;9763;48.780;9.212;2023-01-01T04:14:49;98733.75;;;15.51;80.53
19259;BME280;9763;48.780;9.212;2023-01-01T04:18:12;98733.88;;;15.49;80.36
19259;BME280;9763;48.780;9.212;2023-01-01T04:21:35;98731.34;;;15.48;80.32
19259;BME280;9763;48.780;9.212;2023-01-01T04:24:59;98725.03;;;15.50;80.83
19259;BME280;9763;48.780;9.212;2023-01-01T04:28:23;98724.91;;;15.52;80.94
19259;BME280;9763;48.780;9.212;2023-01-01T04:31:48;98709.00;;;15.54;80.99
19259;BME280;9763;48.780;9.212;2023-01-01T04:35:13;98714.16;;;15.55;80.74
19259;BME280;9763;48.780;9.212;2023-01-01T04:38:37;98713.78;;;15.60;81.80
19259;BME280;9763;48.780;9.212;2023-01-01T04:42:01;98715.94;;;15.66;81.71
19259;BME280;9763;48.780;9.212;2023-01-01T04:45:25;98715.41;;;15.72;81.78
19259;BME280;9763;48.780;9.212;2023-01-01T04:48:50;98700.97;;;15.66;82.31
19259;BME280;9763;48.780;9.212;2023-01-01T04:52:14;98713.25;;;15.77;82.41
19259;BME280;9763;48.780;9.212;2023-01-01T04:55:37;98713.59;;;15.83;82.62
19259;BME280;9763;48.780;9.212;2023-01-01T04:59:01;98722.91;;;15.88;82.34
19259;BME280;9763;48.780;9.212;2023-01-01T05:02:25;98733.09;;;15.92;82.36
19259;BME280;9763;48.780;9.212;2023-01-01T05:06:00;98737.13;;;15.96;82.14
19259;BME280;9763;48.780;9.212;2023-01-01T05:09:24;98735.06;;;16.00;82.07
19259;BME280;9763;48.780;9.212;2023-01-01T05:12:47;98737.47;;;16.03;81.60
19259;BME280;9763;48.780;9.212;2023-01-01T05:16:14;98741.50;;;16.07;81.74
19259;BME280;9763;48.780;9.212;2023-01-01T05:19:38;98746.53;;;16.10;82.06
19259;BME280;9763;48.780;9.212;2023-01-01T05:23:03;98749.88;;;16.12;81.50
19259;BME280;9763;48.780;9.212;2023-01-01T05:26:29;98756.94;;;16.11;82.05
19259;BME280;9763;48.780;9.212;2023-01-01T05:29:53;98754.31;;;16.11;81.40
19259;BME280;9763;48.780;9.212;2023-01-01T05:33:17;98749.03;;;16.11;81.74
19259;BME280;9763;48.780;9.212;2023-01-01T05:36:42;98738.50;;;16.11;81.37
19259;BME280;9763;48.780;9.212;2023-01-01T05:40:08;98746.41;;;16.11;81.28
19259;BME280;9763;48.780;9.212;2023-01-01T05:43:32;98753.47;;;16.11;81.38
19259;BME280;9763;48.780;9.212;2023-01-01T05:46:56;98754.41;;;16.10;81.69
19259;BME280;9763;48.780;9.212;2023-01-01T05:50:20;98757.19;;;16.08;81.50
19259;BME280;9763;48.780;9.212;2023-01-01T05:53:44;98758.97;;;16.08;81.50
19259;BME280;9763;48.780;9.212;2023-01-01T05:57:09;98764.25;;;16.08;81.65
19259;BME280;9763;48.780;9.212;2023-01-01T06:00:33;98761.72;;;16.06;81.25
19259;BME280;9763;48.780;9.212;2023-01-01T06:03:58;98768.09;;;16.04;81.13
19259;BME280;9763;48.780;9.212;2023-01-01T06:07:22;98772.78;;;16.00;80.79
19259;BME280;9763;48.780;9.212;2023-01-01T06:10:46;98771.94;;;16.00;81.42
19259;BME280;9763;48.780;9.212;2023-01-01T06:14:11;98782.72;;;15.97;80.93
19259;BME280;9763;48.780;9.212;2023-01-01T06:17:35;98779.25;;;15.96;80.50
19259;BME280;9763;48.780;9.212;2023-01-01T06:21:04;98786.56;;;15.93;80.43
19259;BME280;9763;48.780;9.212;2023-01-01T06:24:28;98782.97;;;15.94;80.79
19259;BME280;9763;48.780;9.212;2023-01-01T06:28:01;98788.09;;;15.95;81.15
19259;BME280;9763;48.780;9.212;2023-01-01T06:31:27;98787.41;;;15.93;80.41
19259;BME280;9763;48.780;9.212;2023-01-01T06:34:55;98793.63;;;15.92;80.97
19259;BME280;9763;48.780;9.212;2023-01-01T06:38:19;98783.34;;;15.89;80.91
19259;BME280;9763;48.780;9.212;2023-01-01T06:41:43;98785.97;;;15.89;80.70
19259;BME280;9763;48.780;9.212;2023-01-01T06:45:08;98792.91;;;15.90;80.32
19259;BME280;9763;48.780;9.212;2023-01-01T06:48:35;98797.22;;;15.91;80.77
19259;BME280;9763;48.780;9.212;2023-01-01T06:51:59;98798.19;;;15.90;80.30
19259;BME280;9763;48.780;9.212;2023-01-01T06:55:22;98797.34;;;15.90;80.57
19259;BME280;9763;48.780;9.212;2023-01-01T06:58:46;98791.34;;;15.88;80.42
19259;BME280;9763;48.780;9.212;2023-01-01T07:02:10;98794.72;;;15.90;80.83
19259;BME280;9763;48.780;9.212;2023-01-01T07:05:35;98793.75;;;15.91;80.79
19259;BME280;9763;48.780;9.212;2023-01-01T07:08:59;98789.44;;;15.90;80.43
19259;BME280;9763;48.780;9.212;2023-01-01T07:12:23;98791.25;;;15.89;80.60
19259;BME280;9763;48.780;9.212;2023-01-01T07:15:46;98799.72;;;15.93;81.04
19259;BME280;9763;48.780;9.212;2023-01-01T07:19:10;98796.94;;;15.94;80.69
19259;BME280;9763;48.780;9.212;2023-01-01T07:22:37;98809.03;;;15.97;80.58
19259;BME280;9763;48.780;9.212;2023-01-01T07:26:02;98801.03;;;15.98;80.76
19259;BME280;9763;48.780;9.212;2023-01-01T07:29:26;98800.78;;;16.01;80.99
19259;BME280;9763;48.780;9.212;2023-01-01T07:32:53;98800.28;;;16.07;80.89
19259;BME280;9763;48.780;9.212;2023-01-01T07:36:18;98801.69;;;16.11;80.83
19259;BME280;9763;48.780;9.212;2023-01-01T07:39:43;98807.56;;;16.15;80.76
19259;BME280;9763;48.780;9.212;2023-01-01T07:43:07;98820.34;;;16.19;81.08
19259;BME280;9763;48.780;9.212;2023-01-01T07:46:34;98822.59;;;16.24;81.33
19259;BME280;9763;48.780;9.212;2023-01-01T07:49:58;98834.59;;;16.28;80.92
19259;BME280;9763;48.780;9.212;2023-01-01T07:53:23;98842.22;;;16.31;80.63
19259;BME280;9763;48.780;9.212;2023-01-01T07:56:48;98844.47;;;16.36;80.65
19259;BME280;9763;48.780;9.212;2023-01-01T08:00:17;98852.16;;;16.39;81.21
19259;BME280;9763;48.780;9.212;2023-01-01T08:03:41;98855.63;;;16.39;80.68
19259;BME280;9763;48.780;9.212;2023-01-01T08:07:05;98867.81;;;16.40;80.29
19259;BME280;9763;48.780;9.212;2023-01-01T08:10:30;98871.53;;;16.38;79.97
19259;BME280;9763;48.780;9.212;2023-01-01T08:13:56;98881.47;;;16.34;80.06
19259;BME280;9763;48.780;9.212;2023-01-01T08:17:19;98879.25;;;16.30;79.67
19259;BME280;9763;48.780;9.212;2023-01-01T08:20:43;98870.03;;;16.24;79.80
19259;BME280;9763;48.780;9.212;2023-01-01T08:24:07;98878.56;;;16.16;79.21
19259;BME280;9763;48.780;9.212;2023-01-01T08:27:31;98875.44;;;16.11;79.72
19259;BME280;9763;48.780;9.212;2023-01-01T08:30:56;98877.75;;;16.05;79.10
19259;BME280;9763;48.780;9.212;2023-01-01T08:34:20;98879.78;;;16.01;79.59
19259;BME280;9763;48.780;9.212;2023-01-01T08:37:44;98891.38;;;15.99;78.99
19259;BME280;9763;48.780;9.212;2023-01-01T08:41:08;98883.59;;;15.97;79.55
19259;BME280;9763;48.780;9.212;2023-01-01T08:44:32;98886.34;;;15.96;79.38
19259;BME280;9763;48.780;9.212;2023-01-01T08:47:57;98880.13;;;15.97;78.73
19259;BME280;9763;48.780;9.212;2023-01-01T08:51:22;98894.97;;;15.98;78.77
19259;BME280;9763;48.780;9.212;2023-01-01T08:54:45;98898.44;;;15.98;79.06
19259;BME280;9763;48.780;9.212;2023-01-01T08:58:09;98899.28;;;15.99;79.38
19259;BME280;9763;48.780;9.212;2023-01-01T09:01:33;98896.41;;;16.02;79.09
19259;BME280;9763;48.780;9.212;2023-01-01T09:04:59;98895.44;;;16.03;79.22
19259;BME280;9763;48.780;9.212;2023-01-01T09:08:24;98895.34;;;16.04;78.68
19259;BME280;9763;48.780;9.212;2023-01-01T09:11:50;98895.34;;;16.04;79.02
19259;BME280;9763;48.780;9.212;2023-01-01T09:15:17;98895.22;;;16.06;79.37
19259;BME280;9763;48.780;9.212;2023-01-01T09:18:41;98897.59;;;16.09;79.52
19259;BME280;9763;48.780;9.212;2023-01-01T09:22:10;98890.16;;;16.14;79.28
19259;BME280;9763;48.780;9.212;2023-01-01T09:25:34;98895.75;;;16.20;80.13
19259;BME280;9763;48.780;9.212;2023-01-01T09:28:58;98895.84;;;16.30;80.06
19259;BME280;9763;48.780;9.212;2023-01-01T09:32:22;98899.56;;;16.39;79.95
19259;BME280;9763;48.780;9.212;2023-01-01T09:35:46;98898.94;;;16.46;80.42
19259;BME280;9763;48.780;9.212;2023-01-01T09:39:13;98905.25;;;16.55;80.67
19259;BME280;9763;48.780;9.212;2023-01-01T09:42:41;98899.41;;;16.63;80.63
19259;BME280;9763;48.780;9.212;2023-01-01T09:46:08;98912.66;;;16.72;80.89
19259;BME280;9763;48.780;9.212;2023-01-01T09:49:36;98912.97;;;16.79;80.66
19259;BME280;9763;48.780;9.212;2023-01-01T09:53:04;98914.28;;;16.84;80.30
19259;BME280;9763;48.780;9.212;2023-01-01T09:56:31;98919.75;;;16.92;80.62
19259;BME280;9763;48.780;9.212;2023-01-01T09:59:58;98921.06;;;16.98;80.25
19259;BME280;9763;48.780;9.212;2023-01-01T10:03:31;98913.03;;;17.00;79.56
19259;BME280;9763;48.780;9.212;2023-01-01T10:07:09;98909.13;;;17.04;79.49
19259;BME280;9763;48.780;9.212;2023-01-01T10:10:38;98909.59;;;17.09;80.02
19259;BME280;9763;48.780;9.212;2023-01-01T10:14:13;98906.06;;;17.19;79.85
19259;BME280;9763;48.780;9.212;2023-01-01T10:17:42;98906.72;;;17.33;79.68
19259;BME280;9763;48.780;9.212;2023-01-01T10:21:14;98905.53;;;17.46;79.49
19259;BME280;9763;48.780;9.212;2023-01-01T10:24:43;98886.84;;;17.59;79.89
19259;BME280;9763;48.780;9.212;2023-01-01T10:28:14;98897.09;;;17.73;80.05
19259;BME280;9763;48.780;9.212;2023-01-01T10:31:45;98900.59;;;17.83;79.68
19259;BME280;9763;48.780;9.212;2023-01-01T10:35:14;98896.31;;;17.92;79.69
19259;BME280;9763;48.780;9.212;2023-01-01T10:38:39;98893.69;;;18.02;80.30
19259;BME280;9763;48.780;9.212;2023-01-01T10:42:03;98894.44;;;18.13;80.29
19259;BME280;9763;48.780;9.212;2023-01-01T10:45:31;98887.94;;;18.36;80.69
19259;BME280;9763;48.780;9.212;2023-01-01T10:49:08;98876.31;;;18.87;80.90
19259;BME280;9763;48.780;9.212;2023-01-01T10:52:36;98882.69;;;19.70;82.56
19259;BME280;9763;48.780;9.212;2023-01-01T10:56:09;98879.25;;;20.42;82.53
19259;BME280;9763;48.780;9.212;2023-01-01T10:59:36;98881.06;;;20.95;81.18
19259;BME280;9763;48.780;9.212;2023-01-01T11:03:19;98877.50;;;21.47;80.90
19259;BME280;9763;48.780;9.212;2023-01-01T11:06:46;98868.22;;;21.85;79.71
19259;BME280;9763;48.780;9.212;2023-01-01T11:10:18;98864.19;;;22.07;78.10
19259;BME280;9763;48.780;9.212;2023-01-01T11:13:47;98860.28;;;21.93;77.03
19259;BME280;9763;48.780;9.212;2023-01-01T11:17:12;98858.88;;;21.73;76.21
19259;BME280;9763;48.780;9.212;2023-01-01T11:20:43;98868.00;;;21.45;76.46
19259;BME280;9763;48.780;9.212;2023-01-01T11:24:23;98864.28;;;21.12;75.96
19259;BME280;9763;48.780;9.212;2023-01-01T11:27:48;98857.28;;;20.85;76.33
19259;BME280;9763;48.780;9.212;2023-01-01T11:31:14;98854.13;;;20.64;76.53
19259;BME280;9763;48.780;9.212;2023-01-01T11:34:43;98853.25;;;20.45;76.87
19259;BME280;9763;48.780;9.212;2023-01-01T11:38:17;98842.31;;;20.31;76.56
19259;BME280;9763;48.780;9.212;2023-01-01T11:41:53;98833.59;;;20.21;77.11
19259;BME280;9763;48.780;9.212;2023-01-01T11:45:21;98826.56;;;20.11;77.79
19259;BME280;9763;48.780;9.212;2023-01-01T11:48:45;98818.53;;;20.03;77.35
19259;BME280;9763;48.780;9.212;2023-01-01T11:52:28;98813.94;;;19.96;77.50
19259;BME280;9763;48.780;9.212;2023-01-01T11:56:05;98806.75;;;19.88;78.02
19259;BME280;9763;48.780;9.212;2023-01-01T11:59:42;98810.97;;;19.81;78.37
19259;BME280;9763;48.780;9.212;2023-01-01T12:03:18;98798.59;;;19.72;78.09
19259;BME280;9763;48.780;9.212;2023-01-01T12:06:56;98795.03;;;19.63;78.54
19259;BME280;9763;48.780;9.212;2023-01-01T12:10:24;98798.25;;;19.57;78.61
19259;BME280;9763;48.780;9.212;2023-01-01T12:13:54;98790.09;;;19.51;78.42
19259;BME280;9763;48.780;9.212;2023-01-01T12:17:23;98783.38;;;19.47;78.77
19259;BME280;9763;48.780;9.212;2023-01-01T12:20:53;98781.88;;;19.44;77.93
19259;BME280;9763;48.780;9.212;2023-01-01T12:24:20;98780.22;;;19.43;78.05
19259;BME280;9763;48.780;9.212;2023-01-01T12:27:55;98782.03;;;19.42;77.82
19259;BME280;9763;48.780;9.212;2023-01-01T12:31:26;98787.47;;;19.41;77.88
19259;BME280;9763;48.780;9.212;2023-01-01T12:35:03;98778.69;;;19.40;77.52
19259;BME280;9763;48.780;9.212;2023-01-01T12:38:58;98768.38;;;19.37;77.68
19259;BME280;9763;48.780;9.212;2023-01-01T12:42:39;98766.84;;;19.35;78.24
19259;BME280;9763;48.780;9.212;2023-01-01T12:46:27;98756.41;;;19.33;78.24
19259;BME280;9763;48.780;9.212;2023-01-01T12:50:11;98754.72;;;19.32;77.55
19259;BME280;9763;48.780;9.212;2023-01-01T12:53:45;98758.91;;;19.35;78.10
19259;BME280;9763;48.780;9.212;2023-01-01T12:57:15;98752.78;;;19.34;77.77
19259;BME280;9763;48.780;9.212;2023-01-01T13:00:50;98758.38;;;19.31;77.93
19259;BME280;9763;48.780;9.212;2023-01-01T13:04:19;98755.88;;;19.30;78.11
19259;BME280;9763;48.780;9.212;2023-01-01T13:07:47;98758.66;;;19.28;77.74
19259;BME280;9763;48.780;9.212;2023-01-01T13:11:13;98772.03;;;19.27;77.77
19259;BME280;9763;48.780;9.212;2023-01-01T13:14:39;98762.72;;;19.23;77.62
19259;BME280;9763;48.780;9.212;2023-01-01T13:18:05;98752.44;;;19.20;77.69
19259;BME280;9763;48.780;9.212;2023-01-01T13:21:29;98750.09;;;19.17;77.86
19259;BME280;9763;48.780;9.212;2023-01-01T13:25:17;98751.19;;;19.14;77.24
19259;BME280;9763;48.780;9.212;2023-01-01T13:28:41;98750.50;;;19.12;77.86
19259;BME280;9763;48.780;9.212;2023-01-01T13:32:07;98754.81;;;19.13;77.34
19259;BME280;9763;48.780;9.212;2023-01-01T13:35:31;98743.94;;;19.16;77.50
19259;BME280;9763;48.780;9.212;2023-01-01T13:38:56;98748.28;;;19.17;77.07
19259;BME280;9763;48.780;9.212;2023-01-01T13:42:44;98738.94;;;19.13;77.13
19259;BME280;9763;48.780;9.212;2023-01-01T13:46:13;98735.88;;;19.08;77.26
19259;BME280;9763;48.780;9.212;2023-01-01T13:49:49;98739.69;;;19.05;77.61
19259;BME280;9763;48.780;9.212;2023-01-01T13:53:39;98719.22;;;19.08;77.29
19259;BME280;9763;48.780;9.212;2023-01-01T13:57:16;98735.75;;;19.10;77.37
19259;BME280;9763;48.780;9.212;2023-01-01T14:04:42;98725.75;;;19.03;77.68
19259;BME280;9763;48.780;9.212;2023-01-01T14:08:26;98717.56;;;18.97;77.49
19259;BME280;9763;48.780;9.212;2023-01-01T14:11:51;98712.72;;;18.92;77.39
19259;BME280;9763;48.780;9.212;2023-01-01T14:15:23;98719.13;;;18.90;77.22
19259;BME280;9763;48.780;9.212;2023-01-01T14:18:50;98723.72;;;18.88;77.24
19259;BME280;9763;48.780;9.212;2023-01-01T14:22:16;98726.94;;;18.82;77.00
19259;BME280;9763;48.780;9.212;2023-01-01T14:25:41;98725.69;;;18.76;77.12
19259;BME280;9763;48.780;9.212;2023-01-01T14:29:08;98721.13;;;18.68;76.95
19259;BME280;9763;48.780;9.212;2023-01-01T14:32:33;98737.69;;;18.61;77.02
19259;BME280;9763;48.780;9.212;2023-01-01T14:36:00;98734.34;;;18.49;76.59
19259;BME280;9763;48.780;9.212;2023-01-01T14:39:27;98737.16;;;18.38;77.09
19259;BME280;9763;48.780;9.212;2023-01-01T14:42:57;98736.47;;;18.26;77.28
19259;BME280;9763;48.780;9.212;2023-01-01T14:46:25;98732.28;;;18.14;77.17
19259;BME280;9763;48.780;9.212;2023-01-01T14:49:49;98728.81;;;18.04;76.94
19259;BME280;9763;48.780;9.212;2023-01-01T14:53:18;98731.72;;;17.91;77.29
19259;BME280;9763;48.780;9.212;2023-01-01T14:56:46;98740.50;;;17.82;77.44
19259;BME280;9763;48.780;9.212;2023-01-01T15:00:21;98740.47;;;17.73;77.15
19259;BME280;9763;48.780;9.212;2023-01-01T15:03:55;98732.50;;;17.63;77.31
19259;BME280;9763;48.780;9.212;2023-01-01T15:07:22;98736.25;;;17.51;77.42
19259;BME280;9763;48.780;9.212;2023-01-01T15:10:48;98729.41;;;17.39;77.35
19259;BME280;9763;48.780;9.212;2023-01-01T15:14:30;98733.53;;;17.32;77.23
19259;BME280;9763;48.780;9.212;2023-01-01T15:17:54;98735.88;;;17.25;77.65
19259;BME280;9763;48.780;9.212;2023-01-01T15:21:32;98742.75;;;17.16;77.60
19259;BME280;9763;48.780;9.212;2023-01-01T15:24:59;98736.09;;;17.12;77.79
19259;BME280;9763;48.780;9.212;2023-01-01T15:28:24;98732.06;;;17.08;77.58
19259;BME280;9763;48.780;9.212;2023-01-01T15:31:53;98743.69;;;17.06;78.13
19259;BME280;9763;48.780;9.212;2023-01-01T15:35:21;98730.50;;;17.06;78.11
19259;BME280;9763;48.780;9.212;2023-01-01T15:38:53;98728.84;;;17.05;77.93
19259;BME280;9763;48.780;9.212;2023-01-01T15:42:31;98721.88;;;17.04;77.96
19259;BME280;9763;48.780;9.212;2023-01-01T15:45:58;98718.56;;;17.02;78.00
19259;BME280;9763;48.780;9.212;2023-01-01T15:49:24;98721.34;;;17.00;78.24
19259;BME280;9763;48.780;9.212;2023-01-01T15:52:50;98721.84;;;16.94;77.74
19259;BME280;9763;48.780;9.212;2023-01-01T15:56:17;98723.50;;;16.85;78.20
19259;BME280;9763;48.780;9.212;2023-01-01T15:59:43;98718.72;;;16.79;77.65
19259;BME280;9763;48.780;9.212;2023-01-01T16:03:17;98719.25;;;16.73;77.90
19259;BME280;9763;48.780;9.212;2023-01-01T16:06:44;98720.06;;;16.64;77.66
19259;BME280;9763;48.780;9.212;2023-01-01T16:10:13;98715.50;;;16.55;77.65
19259;BME280;9763;48.780;9.212;2023-01-01T16:13:37;98730.75;;;16.51;78.15
19259;BME280;9763;48.780;9.212;2023-01-01T16:17:01;98726.44;;;16.50;77.93
19259;BME280;9763;48.780;9.212;2023-01-01T16:20:26;98714.13;;;16.51;78.59
19259;BME280;9763;48.780;9.212;2023-01-01T16:23:49;98713.41;;;16.49;77.92
19259;BME280;9763;48.780;9.212;2023-01-01T16:27:13;98702.03;;;16.48;78.27
19259;BME280;9763;48.780;9.212;2023-01-01T16:30:37;98700.09;;;16.50;78.99
19259;BME280;9763;48.780;9.212;2023-01-01T16:34:02;98691.22;;;16.51;78.65
19259;BME280;9763;48.780;9.212;2023-01-01T16:37:28;98688.19;;;16.56;78.63
19259;BME280;9763;48.780;9.212;2023-01-01T16:40:51;98698.47;;;16.59;78.71
19259;BME280;9763;48.780;9.212;2023-01-01T16:44:15;98692.56;;;16.67;79.25
19259;BME280;9763;48.780;9.212;2023-01-01T16:47:39;98699.13;;;16.72;79.26
19259;BME280;9763;48.780;9.212;2023-01-01T16:51:04;98691.94;;;16.74;79.10
19259;BME280;9763;48.780;9.212;2023-01-01T16:54:30;98685.84;;;16.74;79.26
19259;BME280;9763;48.780;9.212;2023-01-01T16:57:53;98690.13;;;16.75;78.63
19259;BME280;9763;48.780;9.212;2023-01-01T17:01:37;98698.16;;;16.73;79.08
19259;BME280;9763;48.780;9.212;2023-01-01T17:05:01;98688.13;;;16.67;78.79
19259;BME280;9763;48.780;9.212;2023-01-01T17:08:25;98681.34;;;16.65;78.79
19259;BME280;9763;48.780;9.212;2023-01-01T17:11:50;98679.81;;;16.62;78.94
19259;BME280;9763;48.780;9.212;2023-01-01T17:15:14;98683.50;;;16.60;78.33
19259;BME280;9763;48.780;9.212;2023-01-01T17:18:38;98678.78;;;16.53;77.91
19259;BME280;9763;48.780;9.212;2023-01-01T17:22:22;98676.06;;;16.44;77.82
19259;BME280;9763;48.780;9.212;2023-01-01T17:25:50;98679.34;;;16.36;77.02
19259;BME280;9763;48.780;9.212;2023-01-01T17:29:15;98674.88;;;16.27;76.92
19259;BME280;9763;48.780;9.212;2023-01-01T17:32:39;98678.66;;;16.13;76.53
19259;BME280;9763;48.780;9.212;2023-01-01T17:36:04;98677.88;;;16.02;76.38
19259;BME280;9763;48.780;9.212;2023-01-01T17:39:28;98676.13;;;15.91;76.39
19259;BME280;9763;48.780;9.212;2023-01-01T17:42:51;98673.53;;;15.80;76.55
19259;BME280;9763;48.780;9.212;2023-01-01T17:46:19;98671.78;;;15.69;76.26
19259;BME280;9763;48.780;9.212;2023-01-01T17:49:44;98672.63;;;15.59;76.59
19259;BME280;9763;48.780;9.212;2023-01-01T17:53:07;98676.81;;;15.50;76.87
19259;BME280;9763;48.780;9.212;2023-01-01T17:56:35;98672.31;;;15.41;76.36
19259;BME280;9763;48.780;9.212;2023-01-01T17:59:59;98669.47;;;15.33;76.82
19259;BME280;9763;48.780;9.212;2023-01-01T18:03:35;98665.88;;;15.23;76.44
19259;BME280;9763;48.780;9.212;2023-01-01T18:06:59;98656.22;;;15.12;76.70
19259;BME280;9763;48.780;9.212;2023-01-01T18:10:27;98660.53;;;15.02;77.30
19259;BME280;9763;48.780;9.212;2023-01-01T18:13:51;98654.84;;;14.97;77.34
19259;BME280;9763;48.780;9.212;2023-01-01T18:17:15;98656.84;;;14.93;77.22
19259;BME280;9763;48.780;9.212;2023-01-01T18:20:40;98655.41;;;14.89;77.62
19259;BME280;9763;48.780;9.212;2023-01-01T18:24:07;98652.19;;;14.86;77.87
19259;BME280;9763;48.780;9.212;2023-01-01T18:27:33;98655.91;;;14.83;77.96
19259;BME280;9763;48.780;9.212;2023-01-01T18:31:03;98666.53;;;14.82;77.66
19259;BME280;9763;48.780;9.212;2023-01-01T18:34:28;98664.97;;;14.79;78.37
19259;BME280;9763;48.780;9.212;2023-01-01T18:37:53;98655.53;;;14.76;78.40